createdAt,value
2023-04-22T00:01:41.425Z,3.57
2023-04-22T00:04:10.039Z,3.93
2023-04-22T00:06:39.017Z,3.70
2023-04-22T00:09:07.868Z,3.47
2023-04-22T00:11:36.077Z,4.17
2023-04-22T00:14:06.102Z,3.77
2023-04-22T00:16:34.760Z,3.87
2023-04-22T00:19:03.457Z,4.00
2023-04-22T00:21:32.457Z,4.10
2023-04-22T00:24:01.093Z,4.23
2023-04-22T00:26:29.758Z,3.90
2023-04-22T00:28:58.999Z,4.17
2023-04-22T00:31:29.029Z,4.50
2023-04-22T00:33:57.344Z,4.20
2023-04-22T00:36:26.124Z,4.30
2023-04-22T00:38:55.313Z,4.20
2023-04-22T00:41:24.388Z,3.90
2023-04-22T00:43:54.594Z,4.30
2023-04-22T00:46:23.192Z,4.27
2023-04-22T00:48:54.193Z,4.10
2023-04-22T00:51:22.865Z,4.10
2023-04-22T00:53:51.879Z,4.27
2023-04-22T00:56:21.992Z,4.33
2023-04-22T00:58:50.807Z,3.97
2023-04-22T01:01:19.599Z,4.47
2023-04-22T01:03:50.974Z,4.30
2023-04-22T01:06:21.553Z,4.40
2023-04-22T01:08:50.173Z,4.50
2023-04-22T01:11:18.741Z,4.50
2023-04-22T01:13:47.685Z,4.80
2023-04-22T01:16:16.384Z,4.50
2023-04-22T01:18:45.480Z,4.77
2023-04-22T01:21:14.180Z,4.87
2023-04-22T01:23:44.634Z,4.40
2023-04-22T01:26:13.529Z,4.70
2023-04-22T01:28:42.196Z,4.87
2023-04-22T01:31:11.016Z,4.90
2023-04-22T01:33:39.770Z,4.83
2023-04-22T01:36:10.932Z,4.87
2023-04-22T01:38:42.838Z,4.73
2023-04-22T01:41:11.555Z,4.67
2023-04-22T01:43:40.775Z,4.57
2023-04-22T01:46:10.278Z,4.37
2023-04-22T01:48:39.517Z,4.37
2023-04-22T01:51:07.980Z,5.10
2023-04-22T01:53:38.079Z,4.80
2023-04-22T01:56:08.687Z,4.57
2023-04-22T01:58:37.401Z,4.20
2023-04-22T02:01:06.792Z,4.40
2023-04-22T02:03:36.110Z,4.43
2023-04-22T02:06:04.965Z,4.30
2023-04-22T02:08:33.678Z,4.43
2023-04-22T02:11:02.329Z,4.60
2023-04-22T02:13:38.928Z,4.57
2023-04-22T02:16:09.401Z,4.47
2023-04-22T02:18:38.127Z,4.90
2023-04-22T02:21:10.467Z,4.83
2023-04-22T02:23:41.445Z,4.47
2023-04-22T02:26:11.510Z,4.73
2023-04-22T02:28:41.667Z,4.80
2023-04-22T02:31:10.703Z,5.03
2023-04-22T02:33:42.622Z,4.87
2023-04-22T02:36:11.627Z,4.70
2023-04-22T02:38:40.501Z,5.30
2023-04-22T02:41:09.178Z,4.67
2023-04-22T02:43:42.812Z,4.90
2023-04-22T02:46:13.122Z,5.13
2023-04-22T02:48:42.664Z,4.90
2023-04-22T02:51:11.358Z,4.60
2023-04-22T02:53:40.080Z,5.33
2023-04-22T02:56:09.939Z,4.80
2023-04-22T02:58:39.981Z,4.97
2023-04-22T03:01:09.017Z,4.80
2023-04-22T03:03:37.959Z,5.00
2023-04-22T03:06:09.531Z,4.73
2023-04-22T03:08:38.763Z,4.60
2023-04-22T03:11:07.648Z,5.00
2023-04-22T03:13:36.267Z,4.63
2023-04-22T03:16:06.535Z,4.80
2023-04-22T03:18:35.696Z,4.67
2023-04-22T03:21:05.518Z,4.53
2023-04-22T03:23:34.590Z,5.13
2023-04-22T03:26:03.415Z,4.20
2023-04-22T03:28:32.132Z,4.57
2023-04-22T03:31:01.397Z,4.73
2023-04-22T03:33:31.480Z,4.67
2023-04-22T03:36:07.323Z,4.27
2023-04-22T03:38:35.956Z,4.40
2023-04-22T03:41:04.655Z,4.90
2023-04-22T03:43:41.151Z,4.47
2023-04-22T03:46:11.452Z,4.40
2023-04-22T03:48:44.368Z,4.53
2023-04-22T03:51:22.592Z,4.07
2023-04-22T03:53:51.735Z,4.73
2023-04-22T03:56:24.492Z,4.50
2023-04-22T03:58:55.445Z,5.23
2023-04-22T04:01:24.625Z,4.60
2023-04-22T04:03:58.748Z,4.70
2023-04-22T04:06:34.811Z,4.67
2023-04-22T04:09:03.797Z,4.73
2023-04-22T04:11:33.125Z,5.10
2023-04-22T04:14:03.945Z,4.60
2023-04-22T04:16:49.250Z,5.20
2023-04-22T04:19:27.873Z,4.80
2023-04-22T04:21:57.010Z,5.00
2023-04-22T04:24:28.393Z,4.80
2023-04-22T04:27:04.341Z,4.73
2023-04-22T04:29:39.903Z,5.00
2023-04-22T04:32:14.651Z,4.80
2023-04-22T04:34:45.434Z,5.20
2023-04-22T04:37:16.833Z,5.13
2023-04-22T04:39:59.292Z,4.70
2023-04-22T04:42:34.531Z,5.00
2023-04-22T04:45:08.850Z,4.70
2023-04-22T04:47:37.985Z,5.23
2023-04-22T04:50:17.995Z,5.33
2023-04-22T04:52:46.978Z,5.30
2023-04-22T04:55:15.827Z,4.80
2023-04-22T04:57:45.271Z,4.83
2023-04-22T05:00:15.984Z,5.53
2023-04-22T05:02:46.254Z,4.83
2023-04-22T05:05:15.316Z,4.63
2023-04-22T05:07:46.601Z,5.00
2023-04-22T05:10:16.898Z,4.30
2023-04-22T05:12:47.854Z,4.47
2023-04-22T05:15:22.155Z,4.73
2023-04-22T05:17:50.868Z,4.37
2023-04-22T05:20:19.580Z,5.10
2023-04-22T05:22:49.878Z,4.80
2023-04-22T05:25:19.284Z,4.70
2023-04-22T05:27:56.638Z,4.70
2023-04-22T05:30:27.290Z,4.40
2023-04-22T05:32:56.061Z,4.50
2023-04-22T05:35:24.744Z,4.40
2023-04-22T05:37:55.729Z,5.00
2023-04-22T05:40:24.538Z,4.37
2023-04-22T05:42:53.211Z,4.37
2023-04-22T05:45:22.034Z,4.57
2023-04-22T05:47:52.113Z,4.53
2023-04-22T05:50:22.777Z,4.63
2023-04-22T05:52:58.903Z,4.40
2023-04-22T05:55:29.795Z,4.67
2023-04-22T05:57:58.453Z,4.30
2023-04-22T06:00:44.993Z,4.40
2023-04-22T06:03:32.436Z,4.17
2023-04-22T06:06:01.662Z,4.43
2023-04-22T06:08:32.444Z,4.30
2023-04-22T06:11:01.135Z,3.95
2023-04-22T06:13:32.677Z,4.40
2023-04-22T06:16:02.145Z,3.70
2023-04-22T06:18:32.431Z,4.32
2023-04-22T06:21:02.389Z,4.40
2023-04-22T06:23:32.600Z,4.20
2023-04-22T06:26:01.712Z,4.70
2023-04-22T06:28:31.692Z,4.28
2023-04-22T06:31:04.080Z,4.57
2023-04-22T06:33:32.696Z,4.85
2023-04-22T06:36:04.930Z,4.13
2023-04-22T06:38:35.483Z,4.30
2023-04-22T06:41:23.157Z,4.20
2023-04-22T06:43:54.153Z,4.78
2023-04-22T06:46:51.246Z,4.70
2023-04-22T06:49:22.851Z,4.80
2023-04-22T06:51:54.330Z,4.45
2023-04-22T06:54:25.126Z,4.40
2023-04-22T06:56:53.980Z,5.05
2023-04-22T06:59:22.489Z,4.60
2023-04-22T07:01:51.403Z,4.60
2023-04-22T07:04:19.945Z,4.40
2023-04-22T07:06:48.833Z,4.30
2023-04-22T07:09:17.224Z,4.95
2023-04-22T07:11:47.922Z,4.65
2023-04-22T07:14:20.649Z,5.28
2023-04-22T07:16:49.454Z,4.40
2023-04-22T07:19:18.136Z,4.90
2023-04-22T07:21:46.903Z,4.65
2023-04-22T07:24:15.933Z,4.32
2023-04-22T07:26:45.251Z,5.00
2023-04-22T07:29:15.284Z,4.93
2023-04-22T07:31:43.898Z,4.15
2023-04-22T07:34:12.556Z,5.20
2023-04-22T07:36:41.291Z,4.85
2023-04-22T07:39:10.264Z,4.78
2023-04-22T07:41:38.916Z,5.03
2023-04-22T07:44:07.797Z,5.18
2023-04-22T07:46:37.774Z,5.10
2023-04-22T07:49:06.454Z,4.70
2023-04-22T07:51:35.532Z,4.70
2023-04-22T07:54:04.255Z,4.85
2023-04-22T07:56:33.127Z,4.90
2023-04-22T07:59:01.756Z,5.30
2023-04-22T08:01:30.751Z,5.03
2023-04-22T08:04:00.948Z,5.22
2023-04-22T08:06:29.825Z,4.60
2023-04-22T08:08:58.462Z,5.38
2023-04-22T08:11:27.081Z,4.95
2023-04-22T08:13:55.771Z,5.43
2023-04-22T08:16:24.571Z,5.18
2023-04-22T08:18:53.234Z,5.15
2023-04-22T08:21:23.029Z,5.10
2023-04-22T08:23:52.147Z,4.90
2023-04-22T08:26:20.974Z,4.93
2023-04-22T08:28:49.801Z,5.15
2023-04-22T08:31:18.516Z,4.82
2023-04-22T08:33:47.173Z,5.07
2023-04-22T08:36:16.150Z,4.43
2023-04-22T08:38:47.784Z,4.78
2023-04-22T08:41:19.899Z,5.20
2023-04-22T08:43:49.275Z,4.88
2023-04-22T08:46:21.034Z,4.82
2023-04-22T08:48:51.709Z,4.85
2023-04-22T08:51:20.390Z,4.75
2023-04-22T08:53:50.109Z,4.35
2023-04-22T08:56:19.130Z,4.68
2023-04-22T08:58:48.226Z,4.75
2023-04-22T09:01:18.214Z,4.05
2023-04-22T09:03:50.056Z,4.05
2023-04-22T09:06:21.617Z,4.30
2023-04-22T09:08:51.671Z,4.20
2023-04-22T09:11:20.742Z,3.70
2023-04-22T09:13:49.398Z,4.68
2023-04-22T09:16:17.918Z,4.03
2023-04-22T09:18:46.840Z,4.22
2023-04-22T09:21:16.216Z,4.00
2023-04-22T09:23:51.446Z,4.50
2023-04-22T09:26:21.901Z,4.78
2023-04-22T09:28:52.224Z,4.40
2023-04-22T09:31:22.160Z,3.85
2023-04-22T09:33:54.358Z,3.30
2023-04-22T09:36:24.717Z,3.08
2023-04-22T09:38:56.324Z,3.83
2023-04-22T09:41:32.359Z,3.03
2023-04-22T09:44:02.916Z,2.30
2023-04-22T09:46:33.703Z,2.30
2023-04-22T09:49:02.830Z,3.00
2023-04-22T09:51:34.505Z,3.50
2023-04-22T09:54:09.869Z,2.50
2023-04-22T09:56:48.507Z,3.03
2023-04-22T09:59:22.277Z,3.00
2023-04-22T10:01:53.300Z,3.28
2023-04-22T10:04:23.393Z,2.80
2023-04-22T10:06:52.447Z,2.63
2023-04-22T10:09:25.563Z,3.28
2023-04-22T10:11:56.758Z,3.30
2023-04-22T10:14:26.213Z,2.83
2023-04-22T10:17:00.156Z,3.00
2023-04-22T10:19:29.962Z,2.50
2023-04-22T10:22:01.621Z,2.47
2023-04-22T10:24:38.339Z,2.50
2023-04-22T10:27:08.460Z,2.33
2023-04-22T10:29:39.668Z,2.70
2023-04-22T10:32:25.805Z,2.90
2023-04-22T10:35:10.899Z,2.80
2023-04-22T10:37:42.501Z,2.95
2023-04-22T10:40:17.569Z,2.88
2023-04-22T10:42:53.415Z,2.95
2023-04-22T10:45:26.770Z,3.20
2023-04-22T10:47:55.440Z,3.28
2023-04-22T10:50:26.947Z,3.05
2023-04-22T10:52:58.786Z,3.03
2023-04-22T10:55:52.925Z,2.75
2023-04-22T10:58:23.974Z,2.53
2023-04-22T11:01:00.128Z,2.97
2023-04-22T11:03:30.614Z,2.80
2023-04-22T11:06:22.232Z,2.92
2023-04-22T11:08:52.144Z,2.80
2023-04-22T11:11:21.824Z,3.08
2023-04-22T11:13:51.985Z,2.72
2023-04-22T11:16:24.275Z,2.20
2023-04-22T11:18:53.536Z,2.58
2023-04-22T11:21:23.544Z,2.63
2023-04-22T11:23:53.442Z,2.20
2023-04-22T11:26:36.344Z,2.60
2023-04-22T11:29:05.189Z,3.05
2023-04-22T11:31:33.615Z,2.67
2023-04-22T11:34:02.390Z,2.50
2023-04-22T11:36:31.568Z,2.50
2023-04-22T11:39:00.181Z,2.55
2023-04-22T11:41:31.489Z,2.53
2023-04-22T11:44:02.420Z,2.17
2023-04-22T11:46:38.466Z,2.40
2023-04-22T11:49:15.035Z,1.92
2023-04-22T11:51:57.882Z,1.90
2023-04-22T11:54:37.223Z,2.10
2023-04-22T11:57:11.948Z,2.17
2023-04-22T11:59:41.195Z,2.05
2023-04-22T12:02:10.470Z,1.80
2023-04-22T12:04:40.302Z,1.80
2023-04-22T12:07:09.276Z,1.88
2023-04-22T12:09:38.526Z,1.75
2023-04-22T12:12:08.910Z,1.60
2023-04-22T12:14:37.570Z,2.00
2023-04-22T12:17:06.504Z,1.98
2023-04-22T12:19:35.130Z,1.50
2023-04-22T12:22:03.813Z,1.70
2023-04-22T12:24:32.692Z,1.50
2023-04-22T12:27:03.888Z,1.52
2023-04-22T12:29:35.706Z,1.80
2023-04-22T12:32:04.329Z,1.50
2023-04-22T12:34:32.992Z,1.50
2023-04-22T12:37:01.780Z,1.50
2023-04-22T12:39:30.151Z,1.67
2023-04-22T12:41:58.734Z,1.45
2023-04-22T12:44:27.353Z,1.70
2023-04-22T12:46:57.378Z,1.40
2023-04-22T12:49:26.294Z,1.30
2023-04-22T12:51:55.213Z,1.50
2023-04-22T12:54:23.776Z,1.30
2023-04-22T12:56:53.009Z,1.65
2023-04-22T12:59:21.386Z,1.40
2023-04-22T13:01:50.077Z,1.40
2023-04-22T13:04:20.906Z,1.30
2023-04-22T13:06:56.166Z,1.30
2023-04-22T13:09:26.483Z,1.23
2023-04-22T13:11:55.560Z,1.10
2023-04-22T13:14:24.176Z,1.17
2023-04-22T13:16:56.284Z,1.10
2023-04-22T13:19:27.088Z,1.20
2023-04-22T13:21:55.865Z,1.23
2023-04-22T13:24:24.421Z,1.15
2023-04-22T13:26:53.064Z,1.17
2023-04-22T13:29:21.674Z,1.00
2023-04-22T13:31:50.351Z,1.13
2023-04-22T13:34:19.083Z,1.10
2023-04-22T13:36:49.420Z,1.00
2023-04-22T13:39:18.903Z,1.10
2023-04-22T13:41:47.781Z,1.15
2023-04-22T13:44:16.434Z,1.30
2023-04-22T13:46:45.615Z,1.02
2023-04-22T13:49:14.272Z,1.00
2023-04-22T13:51:42.990Z,1.13
2023-04-22T13:54:13.669Z,1.20
2023-04-22T13:56:42.688Z,1.52
2023-04-22T13:59:11.301Z,1.20
2023-04-22T14:01:40.102Z,1.17
2023-04-22T14:04:09.054Z,1.10
2023-04-22T14:06:38.053Z,1.25
2023-04-22T14:09:07.033Z,1.00
2023-04-22T14:11:37.265Z,1.30
2023-04-22T14:14:05.998Z,0.95
2023-04-22T14:16:34.673Z,1.10
2023-04-22T14:19:04.326Z,1.10
2023-04-22T14:21:32.969Z,1.10
2023-04-22T14:24:01.354Z,1.27
2023-04-22T14:26:32.470Z,1.20
2023-04-22T14:29:02.563Z,1.10
2023-04-22T14:31:30.961Z,3.03
2023-04-22T14:33:59.552Z,1.77
2023-04-22T14:36:28.950Z,1.02
2023-04-22T14:38:57.305Z,1.00
2023-04-22T14:41:26.270Z,1.33
2023-04-22T14:43:54.991Z,1.00
2023-04-22T14:46:24.998Z,1.30
2023-04-22T14:48:53.641Z,1.20
2023-04-22T14:51:22.323Z,1.20
2023-04-22T14:53:51.520Z,1.17
2023-04-22T14:56:20.594Z,1.30
2023-04-22T14:58:49.619Z,0.90
2023-04-22T15:01:20.653Z,1.02
2023-04-22T15:03:52.784Z,0.98
2023-04-22T15:06:21.596Z,1.10
2023-04-22T15:08:51.832Z,1.00
2023-04-22T15:11:20.495Z,0.93
2023-04-22T15:13:49.187Z,1.30
2023-04-22T15:16:18.131Z,1.02
2023-04-22T15:18:46.708Z,1.00
2023-04-22T15:21:16.537Z,1.10
2023-04-22T15:23:45.172Z,1.23
2023-04-22T15:26:15.099Z,1.20
2023-04-22T15:28:43.791Z,0.95
2023-04-22T15:31:12.467Z,1.10
2023-04-22T15:33:41.474Z,1.10
2023-04-22T15:36:10.150Z,0.90
2023-04-22T15:38:40.099Z,1.13
2023-04-22T15:41:08.732Z,0.90
2023-04-22T15:43:37.660Z,1.38
2023-04-22T15:46:06.956Z,1.17
2023-04-22T15:48:35.662Z,1.00
2023-04-22T15:51:04.446Z,1.10
2023-04-22T15:53:32.778Z,1.10
2023-04-22T15:56:02.790Z,1.10
2023-04-22T15:58:34.579Z,1.00
2023-04-22T16:01:15.443Z,1.20
2023-04-22T16:03:48.382Z,1.20
2023-04-22T16:06:17.888Z,1.20
2023-04-22T16:08:46.998Z,1.30
2023-04-22T16:11:17.616Z,1.08
2023-04-22T16:13:46.450Z,1.05
2023-04-22T16:16:15.292Z,1.23
2023-04-22T16:18:44.452Z,1.30
2023-04-22T16:21:13.210Z,1.20
2023-04-22T16:23:41.626Z,1.00
2023-04-22T16:26:11.220Z,1.30
2023-04-22T16:28:41.526Z,1.63
2023-04-22T16:31:11.394Z,1.05
2023-04-22T16:33:39.972Z,1.15
2023-04-22T16:36:10.288Z,1.20
2023-04-22T16:38:39.031Z,1.10
2023-04-22T16:41:09.957Z,1.02
2023-04-22T16:43:41.238Z,1.10
2023-04-22T16:46:10.148Z,1.40
2023-04-22T16:48:39.119Z,1.20
2023-04-22T16:51:08.838Z,1.40
2023-04-22T16:53:37.465Z,1.02
2023-04-22T16:56:06.637Z,1.20
2023-04-22T16:58:34.970Z,1.20
2023-04-22T17:01:07.430Z,1.10
2023-04-22T17:03:36.470Z,1.27
2023-04-22T17:06:05.507Z,1.08
2023-04-22T17:08:35.294Z,1.88
2023-04-22T17:11:04.063Z,1.10
2023-04-22T17:13:32.755Z,1.13
2023-04-22T17:16:01.468Z,1.15
2023-04-22T17:18:34.089Z,1.10
2023-04-22T17:21:02.363Z,1.20
2023-04-22T17:23:33.013Z,1.30
2023-04-22T17:26:01.682Z,1.52
2023-04-22T17:28:30.288Z,1.17
2023-04-22T17:30:59.014Z,1.20
2023-04-22T17:33:27.759Z,1.10
2023-04-22T17:35:57.873Z,1.23
2023-04-22T17:38:26.869Z,1.10
2023-04-22T17:40:55.564Z,1.08
2023-04-22T17:43:24.842Z,1.13
2023-04-22T17:45:53.529Z,1.45
2023-04-22T17:48:22.189Z,3.75
2023-04-22T17:50:51.475Z,12.98
2023-04-22T17:53:21.484Z,14.18
2023-04-22T17:55:50.550Z,38.05
2023-04-22T17:58:19.839Z,170.68
2023-04-22T18:00:48.535Z,109.18
2023-04-22T18:03:20.238Z,35.40
2023-04-22T18:05:49.210Z,18.77
2023-04-22T18:08:17.869Z,4.05
2023-04-22T18:10:50.553Z,1.90
2023-04-22T18:13:19.276Z,2.00
2023-04-22T18:15:48.279Z,14.25
2023-04-22T18:18:16.923Z,84.97
2023-04-22T18:20:46.157Z,30.10
2023-04-22T18:23:14.776Z,21.23
2023-04-22T18:25:46.900Z,8.35
2023-04-22T18:28:17.170Z,10.30
2023-04-22T18:30:45.929Z,58.03
2023-04-22T18:33:14.822Z,70.32
2023-04-22T18:35:43.481Z,33.45
2023-04-22T18:38:12.342Z,25.65
2023-04-22T18:40:41.049Z,16.02
2023-04-22T18:43:10.078Z,14.75
2023-04-22T18:45:40.200Z,15.82
2023-04-22T18:48:08.928Z,8.40
2023-04-22T18:50:37.623Z,7.55
2023-04-22T18:53:06.622Z,7.10
2023-04-22T18:55:35.381Z,4.97
2023-04-22T18:58:04.068Z,3.78
2023-04-22T19:00:32.456Z,3.05
2023-04-22T19:03:02.666Z,2.50
2023-04-22T19:05:31.561Z,2.97
2023-04-22T19:08:00.194Z,3.95
2023-04-22T19:10:29.032Z,2.70
2023-04-22T19:12:59.444Z,3.80
2023-04-22T19:15:28.056Z,2.15
2023-04-22T19:17:56.725Z,2.10
2023-04-22T19:20:27.030Z,1.95
2023-04-22T19:22:55.646Z,1.70
2023-04-22T19:25:24.414Z,1.80
2023-04-22T19:27:53.125Z,1.83
2023-04-22T19:30:23.025Z,1.98
2023-04-22T19:32:51.444Z,1.63
2023-04-22T19:35:20.568Z,1.67
2023-04-22T19:37:50.438Z,2.05
2023-04-22T19:40:19.562Z,2.92
2023-04-22T19:42:48.253Z,3.65
2023-04-22T19:45:16.914Z,3.92
2023-04-22T19:47:46.295Z,3.80
2023-04-22T19:50:16.566Z,3.67
2023-04-22T19:52:47.084Z,5.30
2023-04-22T19:55:17.965Z,5.63
2023-04-22T19:57:47.466Z,4.60
2023-04-22T20:00:17.602Z,3.83
2023-04-22T20:02:47.034Z,3.05
2023-04-22T20:05:16.726Z,2.90
2023-04-22T20:07:48.147Z,3.25
2023-04-22T20:10:18.272Z,3.20
2023-04-22T20:12:47.116Z,4.38
2023-04-22T20:15:16.356Z,2.97
2023-04-22T20:17:45.561Z,2.63
2023-04-22T20:20:17.462Z,2.55
2023-04-22T20:22:47.240Z,2.50
2023-04-22T20:25:18.909Z,2.53
2023-04-22T20:27:47.819Z,2.75
2023-04-22T20:30:16.816Z,2.20
2023-04-22T20:32:45.854Z,2.20
2023-04-22T20:35:16.490Z,2.65
2023-04-22T20:37:47.600Z,2.90
2023-04-22T20:40:18.863Z,3.20
2023-04-22T20:42:47.850Z,2.03
2023-04-22T20:45:17.885Z,2.22
2023-04-22T20:47:47.041Z,2.65
2023-04-22T20:50:16.061Z,2.70
2023-04-22T20:52:44.948Z,2.65
2023-04-22T20:55:13.723Z,2.78
2023-04-22T20:57:43.501Z,2.70
2023-04-22T21:00:13.015Z,2.17
2023-04-22T21:02:41.979Z,2.88
2023-04-22T21:05:12.654Z,2.70
2023-04-22T21:07:42.226Z,2.80
2023-04-22T21:10:12.077Z,3.08
2023-04-22T21:12:42.612Z,3.15
2023-04-22T21:15:12.437Z,3.53
2023-04-22T21:17:49.098Z,3.22
2023-04-22T21:20:18.814Z,3.38
2023-04-22T21:22:48.731Z,3.53
2023-04-22T21:25:22.629Z,3.30
2023-04-22T21:27:53.448Z,3.03
2023-04-22T21:30:22.952Z,3.10
2023-04-22T21:32:51.649Z,2.90
2023-04-22T21:35:23.153Z,3.05
2023-04-22T21:37:54.228Z,3.10
2023-04-22T21:40:23.845Z,2.90
2023-04-22T21:42:53.816Z,2.70
2023-04-22T21:45:22.764Z,2.78
2023-04-22T21:47:51.184Z,2.70
2023-04-22T21:50:20.853Z,2.88
2023-04-22T21:52:50.000Z,2.65
2023-04-22T21:55:19.533Z,2.60
2023-04-22T21:57:48.446Z,2.72
2023-04-22T22:00:19.326Z,2.63
2023-04-22T22:02:49.154Z,2.92
2023-04-22T22:05:17.986Z,3.00
2023-04-22T22:07:49.858Z,3.47
2023-04-22T22:10:20.438Z,3.72
2023-04-22T22:12:49.149Z,3.75
2023-04-22T22:15:21.867Z,3.20
2023-04-22T22:17:50.906Z,3.40
2023-04-22T22:20:20.536Z,2.95
2023-04-22T22:22:49.519Z,2.88
2023-04-22T22:25:18.306Z,3.00
2023-04-22T22:27:48.883Z,3.17
2023-04-22T22:30:21.082Z,2.85
2023-04-22T22:32:49.949Z,3.20
2023-04-22T22:35:18.883Z,2.65
2023-04-22T22:37:47.547Z,3.13
2023-04-22T22:40:16.483Z,2.70
2023-04-22T22:42:45.333Z,2.70
2023-04-22T22:45:14.506Z,2.70
2023-04-22T22:47:44.826Z,2.85
2023-04-22T22:50:13.537Z,2.88
2023-04-22T22:52:42.333Z,2.97
2023-04-22T22:55:11.299Z,2.70
2023-04-22T22:57:39.891Z,3.00
2023-04-22T23:00:11.092Z,2.70
2023-04-22T23:02:40.547Z,2.63
2023-04-22T23:05:11.323Z,3.90
2023-04-22T23:07:40.056Z,3.90
2023-04-22T23:10:10.100Z,3.30
2023-04-22T23:12:38.807Z,3.58
2023-04-22T23:15:09.005Z,2.80
2023-04-22T23:17:38.199Z,3.10
2023-04-22T23:20:09.966Z,3.00
2023-04-22T23:22:41.388Z,3.03
2023-04-22T23:25:11.643Z,3.10
2023-04-22T23:27:41.281Z,3.28
2023-04-22T23:30:10.915Z,3.30
2023-04-22T23:32:44.018Z,3.72
2023-04-22T23:35:14.081Z,3.50
2023-04-22T23:37:46.365Z,3.38
2023-04-22T23:40:15.154Z,3.13
2023-04-22T23:42:43.767Z,3.58
2023-04-22T23:45:13.396Z,3.72
2023-04-22T23:47:42.208Z,3.53
2023-04-22T23:50:14.019Z,3.30
2023-04-22T23:52:43.987Z,3.67
2023-04-22T23:55:15.925Z,3.42
2023-04-22T23:57:45.056Z,3.58
